Accueil
METAR-TAF:

METAR-TAF

Aéroports :

Aéroport Andorre

La Seu d'Urgell, Espagne

latitude: 42-20-29N, longitude: 001-24-17E, altitude: 802 m

Observation

Le bulletin a été fait il y a 29 minutes, à 13:30 UTC
Vent 4 kt de sud, variant entre est/sud-est et ouest
Température 28°C
Humidité 19%
Pression 1021 hPa
Visibilité 10 km ou plus
Quelques nuages à une hauteur de 5500 ft

METAR: LESU 221330Z 17004KT 120V280 9999 FEW055 28/02 Q1021

Heure: 15:59 (13:59 UTC)

Prévision

Le bulletin a été fait il y a 5 heures et 59 minutes, à 08:00 UTC
Prévision valable du 22 à 09 UTC au 23 à 09 UTC
Vent 4 kt de direction variable
Visibilité 10 km ou plus
Quelques nuages à une hauteur de 3000 ft
Temporairement
du 22 à 13 UTC au 22 à 18 UTC
Vent 10 kt de sud

TAF: LESU 220800Z 2209/2309 VRB04KT 9999 FEW030 TX30/2214Z TN12/2305Z TEMPO 2213/2218 18010KT

Observations et prévisions météorologiques de plus de 4000 aéroports (messages METAR et TAF).

Les stations disponibles sont représentées par des disques jaunes et rouges sur la carte.

Passer la souris dessus pour voir le nom de la station.

Cliquer dessus pour voir les observations et prévisions météorologiques.

Pour changer de carte: cliquez sur les boutons verts avec une croix noire pour zoomer, sur le bouton vert avec un tiret pour effectuer un zoom arrière, ou sur les flèches vertes pour les cartes adjacentes.


METAR-TAF: